Baltic Night — J8B4470 — position and weather

sailwx.info

Track history (hours):
 
Tides and Currents Weather Stations Pressure Air Temp Water Temp Dewpoint Dewpoint Depression Visibility Wind Speed Wind Dir Waves Ship Positions

Baltic Night

Last reported at 2013-Sep-19 21:14 UTC. Time now 2014-Dec-20 00:53 UTC.
Position N 38°29' E 025°37'.
Warning: this ship's position is years out of date!

Length 155 m; draft 7.3 m.

Type: Cargo ship. MMSI: 375748000.

Date/timePositionNaut miles runAvg speedWind from/ knotsBaromVisibWave heightAir tempDewpointWater temp
2013-Sep-19 21:14N 38°29' E 025°37'912.7
2013-Sep-19 20:32N 38°24' E 025°27'1313.1
2013-Sep-19 19:32N 38°17' E 025°13'1713.7
2013-Sep-19 18:18N 38°08' E 024°55'2312.9
2013-Sep-19 16:32N 37°53' E 024°32'1312.9
2013-Sep-19 15:33N 37°45' E 024°20'1313.0
2013-Sep-19 14:33N 37°35' E 024°10'42612.9
2013-Sep-18 05:31N 36°27' E 015°23'1414.5
2013-Sep-18 04:32N 36°28' E 015°06'  
2013-Sep-15 19:26N 36°24' W 001°28'1416.4
2013-Sep-15 18:33N 36°22' W 001°46'26615.5
2013-Sep-15 01:24N 36°04' W 007°15'1514.9
2013-Sep-15 00:24N 36°10' W 007°32'1315.0
2013-Sep-14 23:32N 36°13' W 007°48'1515.2
2013-Sep-14 22:33N 36°17' W 008°05'1515.4
2013-Sep-14 21:33N 36°21' W 008°24'1515.5
2013-Sep-14 20:33N 36°26' W 008°42'1515.1
2013-Sep-14 19:34N 36°30' W 009°00'1515.3
2013-Sep-14 18:33N 36°35' W 009°18'1515.3
2013-Sep-14 17:34N 36°46' W 009°32'1615.5
2013-Sep-14 16:33N 37°01' W 009°38'1616.2
2013-Sep-14 15:34N 37°16' W 009°43'1615.8
2013-Sep-14 14:34N 37°31' W 009°48'1514.9
2013-Sep-14 13:33N 37°46' W 009°52'1515.2
2013-Sep-14 12:33N 38°01' W 009°56'1615.9
2013-Sep-14 11:33N 38°17' W 010°00'1615.7
2013-Sep-14 10:33N 38°32' W 010°04'1515.4
2013-Sep-14 09:33N 38°47' W 010°07'1615.7
2013-Sep-14 08:33N 39°03' W 010°07'1615.1
2013-Sep-14 07:31N 39°19' W 010°07'1516.0
2013-Sep-14 06:33N 39°34' W 010°07'8015.8
2013-Sep-14 01:29N 40°54' W 010°07'1616.1
2013-Sep-14 00:30N 41°10' W 010°07'12815.6
2013-Sep-13 16:17N 43°18' W 010°06'1115.7
2013-Sep-13 15:33N 43°28' W 009°58'2115.4
2013-Sep-13 14:11N 43°47' W 009°45'1015.5
2013-Sep-13 13:32N 43°56' W 009°39'57013.9
2013-Sep-11 20:33N 50°35' E 000°20'1515.0
2013-Sep-11 19:33N 50°41' E 000°41'2914.0
2013-Sep-11 17:28N 50°59' E 001°18'1112.3
2013-Sep-11 16:33N 51°06' E 001°32'1211.9
2013-Sep-11 15:33N 51°14' E 001°45'1313.2
2013-Sep-11 14:34N 51°26' E 001°56'1514.8
2013-Sep-11 13:31N 51°38' E 002°11'4915.3
2013-Sep-11 10:21N 52°14' E 003°04'1214.5
2013-Sep-11 09:31N 52°23' E 003°16'1313.8
2013-Sep-11 08:33N 52°34' E 003°29'1313.1
2013-Sep-11 07:33N 52°44' E 003°42'1312.6
2013-Sep-11 06:33N 52°54' E 003°54'1312.7
2013-Sep-11 05:33N 53°03' E 004°10'1513.6
2013-Sep-11 04:29N 53°14' E 004°27'2014.4
2013-Sep-11 03:07N 53°33' E 004°37'2314.0
2013-Sep-11 01:27N 53°55' E 004°48'1213.6
2013-Sep-11 00:33N 54°07' E 004°54'1313.3
2013-Sep-10 23:34N 54°18' E 005°06'1313.2
2013-Sep-10 22:33N 54°29' E 005°17'24312.7
2013-Sep-10 03:20N 57°41' E 009°46'1013.3
2013-Sep-10 02:33N 57°47' E 010°02'1413.8
2013-Sep-10 01:33N 57°49' E 010°28'1413.9
2013-Sep-10 00:34N 57°45' E 010°53'1514.8
2013-Sep-09 23:34N 57°35' E 011°13'1414.2
2013-Sep-09 22:34N 57°24' E 011°30'1414.4
2013-Sep-09 21:33N 57°10' E 011°38'  
Track history (hours):
 
Tides and Currents Weather Stations Pressure Air Temp Water Temp Dewpoint Dewpoint Depression Visibility Wind Speed Wind Dir Waves Ship Positions

Baltic Night

Last reported at 2013-Sep-19 21:14 UTC. Time now 2014-Dec-20 00:53 UTC.
Position N 38°29' E 025°37'.
Warning: this ship's position is years out of date!

Length 155 m; draft 7.3 m.

Type: Cargo ship. MMSI: 375748000.

Date/timePositionNaut miles runAvg speedWind from/ knotsBaromVisibWave heightAir tempDewpointWater temp
2013-Sep-19 21:14N 38°29' E 025°37'912.7
2013-Sep-19 20:32N 38°24' E 025°27'1313.1
2013-Sep-19 19:32N 38°17' E 025°13'1713.7
2013-Sep-19 18:18N 38°08' E 024°55'2312.9
2013-Sep-19 16:32N 37°53' E 024°32'1312.9
2013-Sep-19 15:33N 37°45' E 024°20'1313.0
2013-Sep-19 14:33N 37°35' E 024°10'42612.9
2013-Sep-18 05:31N 36°27' E 015°23'1414.5
2013-Sep-18 04:32N 36°28' E 015°06'  
2013-Sep-15 19:26N 36°24' W 001°28'1416.4
2013-Sep-15 18:33N 36°22' W 001°46'26615.5
2013-Sep-15 01:24N 36°04' W 007°15'1514.9
2013-Sep-15 00:24N 36°10' W 007°32'1315.0
2013-Sep-14 23:32N 36°13' W 007°48'1515.2
2013-Sep-14 22:33N 36°17' W 008°05'1515.4
2013-Sep-14 21:33N 36°21' W 008°24'1515.5
2013-Sep-14 20:33N 36°26' W 008°42'1515.1
2013-Sep-14 19:34N 36°30' W 009°00'1515.3
2013-Sep-14 18:33N 36°35' W 009°18'1515.3
2013-Sep-14 17:34N 36°46' W 009°32'1615.5
2013-Sep-14 16:33N 37°01' W 009°38'1616.2
2013-Sep-14 15:34N 37°16' W 009°43'1615.8
2013-Sep-14 14:34N 37°31' W 009°48'1514.9
2013-Sep-14 13:33N 37°46' W 009°52'1515.2
2013-Sep-14 12:33N 38°01' W 009°56'1615.9
2013-Sep-14 11:33N 38°17' W 010°00'1615.7
2013-Sep-14 10:33N 38°32' W 010°04'1515.4
2013-Sep-14 09:33N 38°47' W 010°07'1615.7
2013-Sep-14 08:33N 39°03' W 010°07'1615.1
2013-Sep-14 07:31N 39°19' W 010°07'1516.0
2013-Sep-14 06:33N 39°34' W 010°07'8015.8
2013-Sep-14 01:29N 40°54' W 010°07'1616.1
2013-Sep-14 00:30N 41°10' W 010°07'12815.6
2013-Sep-13 16:17N 43°18' W 010°06'1115.7
2013-Sep-13 15:33N 43°28' W 009°58'2115.4
2013-Sep-13 14:11N 43°47' W 009°45'1015.5
2013-Sep-13 13:32N 43°56' W 009°39'57013.9
2013-Sep-11 20:33N 50°35' E 000°20'1515.0
2013-Sep-11 19:33N 50°41' E 000°41'2914.0
2013-Sep-11 17:28N 50°59' E 001°18'1112.3
2013-Sep-11 16:33N 51°06' E 001°32'1211.9
2013-Sep-11 15:33N 51°14' E 001°45'1313.2
2013-Sep-11 14:34N 51°26' E 001°56'1514.8
2013-Sep-11 13:31N 51°38' E 002°11'4915.3
2013-Sep-11 10:21N 52°14' E 003°04'1214.5
2013-Sep-11 09:31N 52°23' E 003°16'1313.8
2013-Sep-11 08:33N 52°34' E 003°29'1313.1
2013-Sep-11 07:33N 52°44' E 003°42'1312.6
2013-Sep-11 06:33N 52°54' E 003°54'1312.7
2013-Sep-11 05:33N 53°03' E 004°10'1513.6
2013-Sep-11 04:29N 53°14' E 004°27'2014.4
2013-Sep-11 03:07N 53°33' E 004°37'2314.0
2013-Sep-11 01:27N 53°55' E 004°48'1213.6
2013-Sep-11 00:33N 54°07' E 004°54'1313.3
2013-Sep-10 23:34N 54°18' E 005°06'1313.2
2013-Sep-10 22:33N 54°29' E 005°17'24312.7
2013-Sep-10 03:20N 57°41' E 009°46'1013.3
2013-Sep-10 02:33N 57°47' E 010°02'1413.8
2013-Sep-10 01:33N 57°49' E 010°28'1413.9
2013-Sep-10 00:34N 57°45' E 010°53'1514.8
2013-Sep-09 23:34N 57°35' E 011°13'1414.2
2013-Sep-09 22:34N 57°24' E 011°30'1414.4
2013-Sep-09 21:33N 57°10' E 011°38'  

Dump ship's entire track history